sensor_id;sensor_type;location;lat;lon;timestamp;pressure;altitude;pressure_sealevel;temperature;humidity
47985;BME280;33753;52.912;-7.342;2022-07-29T00:01:19;100461.25;;;16.06;100.00
47985;BME280;33753;52.912;-7.342;2022-07-29T00:03:48;100461.03;;;16.08;100.00
47985;BME280;33753;52.912;-7.342;2022-07-29T00:06:16;100455.38;;;16.10;100.00
47985;BME280;33753;52.912;-7.342;2022-07-29T00:08:44;100449.50;;;16.13;100.00
47985;BME280;33753;52.912;-7.342;2022-07-29T00:11:12;100451.59;;;16.11;100.00
47985;BME280;33753;52.912;-7.342;2022-07-29T00:13:42;100436.88;;;16.12;100.00
47985;BME280;33753;52.912;-7.342;2022-07-29T00:16:16;100445.72;;;16.14;100.00
47985;BME280;33753;52.912;-7.342;2022-07-29T00:18:44;100448.25;;;16.15;100.00
47985;BME280;33753;52.912;-7.342;2022-07-29T00:21:21;100443.63;;;16.16;100.00
47985;BME280;33753;52.912;-7.342;2022-07-29T00:23:49;100440.69;;;16.11;100.00
47985;BME280;33753;52.912;-7.342;2022-07-29T00:26:18;100441.13;;;16.08;100.00
47985;BME280;33753;52.912;-7.342;2022-07-29T00:28:48;100439.44;;;16.06;100.00
47985;BME280;33753;52.912;-7.342;2022-07-29T00:31:16;100436.03;;;16.04;100.00
47985;BME280;33753;52.912;-7.342;2022-07-29T00:33:44;100432.50;;;16.04;100.00
47985;BME280;33753;52.912;-7.342;2022-07-29T00:36:13;100438.16;;;16.02;100.00
47985;BME280;33753;52.912;-7.342;2022-07-29T00:38:40;100428.72;;;16.05;100.00
47985;BME280;33753;52.912;-7.342;2022-07-29T00:41:11;100426.22;;;16.03;100.00
47985;BME280;33753;52.912;-7.342;2022-07-29T00:43:40;100428.06;;;16.03;100.00
47985;BME280;33753;52.912;-7.342;2022-07-29T00:46:10;100431.84;;;15.95;100.00
47985;BME280;33753;52.912;-7.342;2022-07-29T00:48:38;100434.34;;;15.90;100.00
47985;BME280;33753;52.912;-7.342;2022-07-29T00:51:07;100437.28;;;15.88;100.00
47985;BME280;33753;52.912;-7.342;2022-07-29T00:53:36;100436.03;;;15.91;100.00
47985;BME280;33753;52.912;-7.342;2022-07-29T00:56:05;100432.28;;;15.92;100.00
47985;BME280;33753;52.912;-7.342;2022-07-29T00:58:34;100425.97;;;15.92;100.00
47985;BME280;33753;52.912;-7.342;2022-07-29T01:01:02;100436.03;;;15.91;100.00
47985;BME280;33753;52.912;-7.342;2022-07-29T01:03:32;100435.22;;;15.91;100.00
47985;BME280;33753;52.912;-7.342;2022-07-29T01:06:00;100441.50;;;15.91;100.00
47985;BME280;33753;52.912;-7.342;2022-07-29T01:08:28;100437.72;;;15.92;100.00
47985;BME280;33753;52.912;-7.342;2022-07-29T01:10:56;100436.03;;;15.91;100.00
47985;BME280;33753;52.912;-7.342;2022-07-29T01:13:25;100441.50;;;15.91;100.00
47985;BME280;33753;52.912;-7.342;2022-07-29T01:15:54;100445.69;;;15.87;100.00
47985;BME280;33753;52.912;-7.342;2022-07-29T01:18:28;100446.72;;;15.86;100.00
47985;BME280;33753;52.912;-7.342;2022-07-29T01:24:04;100448.22;;;15.82;100.00
47985;BME280;33753;52.912;-7.342;2022-07-29T01:26:39;100446.09;;;15.84;100.00
47985;BME280;33753;52.912;-7.342;2022-07-29T01:29:24;100444.19;;;15.84;100.00
47985;BME280;33753;52.912;-7.342;2022-07-29T01:32:05;100451.56;;;15.84;100.00
47985;BME280;33753;52.912;-7.342;2022-07-29T01:34:45;100448.22;;;15.82;100.00
47985;BME280;33753;52.912;-7.342;2022-07-29T01:37:18;100448.22;;;15.82;100.00
47985;BME280;33753;52.912;-7.342;2022-07-29T01:39:47;100450.94;;;15.82;100.00
47985;BME280;33753;52.912;-7.342;2022-07-29T01:42:20;100451.97;;;15.81;100.00
47985;BME280;33753;52.912;-7.342;2022-07-29T01:44:56;100446.53;;;15.81;100.00
47985;BME280;33753;52.912;-7.342;2022-07-29T01:47:31;100454.03;;;15.79;100.00
47985;BME280;33753;52.912;-7.342;2022-07-29T01:50:01;100449.47;;;15.79;100.00
47985;BME280;33753;52.912;-7.342;2022-07-29T01:52:34;100451.31;;;15.79;100.00
47985;BME280;33753;52.912;-7.342;2022-07-29T01:55:06;100451.13;;;15.80;100.00
47985;BME280;33753;52.912;-7.342;2022-07-29T01:57:35;100445.66;;;15.80;100.00
47985;BME280;33753;52.912;-7.342;2022-07-29T02:00:06;100456.13;;;15.77;100.00
47985;BME280;33753;52.912;-7.342;2022-07-29T02:02:38;100438.53;;;15.79;100.00
47985;BME280;33753;52.912;-7.342;2022-07-29T02:05:07;100445.22;;;15.77;100.00
47985;BME280;33753;52.912;-7.342;2022-07-29T02:07:38;100438.72;;;15.78;100.00
47985;BME280;33753;52.912;-7.342;2022-07-29T02:10:08;100444.78;;;15.73;100.00
47985;BME280;33753;52.912;-7.342;2022-07-29T02:12:37;100437.66;;;15.72;100.00
47985;BME280;33753;52.912;-7.342;2022-07-29T02:15:08;100441.84;;;15.75;100.00
47985;BME280;33753;52.912;-7.342;2022-07-29T02:17:41;100444.78;;;15.73;100.00
47985;BME280;33753;52.912;-7.342;2022-07-29T02:20:09;100438.06;;;15.76;100.00
47985;BME280;33753;52.912;-7.342;2022-07-29T02:22:39;100442.50;;;15.77;100.00
47985;BME280;33753;52.912;-7.342;2022-07-29T02:25:08;100437.88;;;15.77;100.00
47985;BME280;33753;52.912;-7.342;2022-07-29T02:27:40;100435.81;;;15.79;100.00
47985;BME280;33753;52.912;-7.342;2022-07-29T02:30:11;100439.38;;;15.80;100.00
47985;BME280;33753;52.912;-7.342;2022-07-29T02:32:39;100432.88;;;15.81;100.00
47985;BME280;33753;52.912;-7.342;2022-07-29T02:35:09;100435.59;;;15.81;100.00
47985;BME280;33753;52.912;-7.342;2022-07-29T02:37:38;100437.31;;;15.82;100.00
47985;BME280;33753;52.912;-7.342;2022-07-29T02:40:08;100430.16;;;15.81;100.00
47985;BME280;33753;52.912;-7.342;2022-07-29T02:42:37;100420.06;;;15.81;100.00
47985;BME280;33753;52.912;-7.342;2022-07-29T02:45:06;100426.56;;;15.80;100.00
47985;BME280;33753;52.912;-7.342;2022-07-29T02:47:38;100424.69;;;15.81;100.00
47985;BME280;33753;52.912;-7.342;2022-07-29T02:50:09;100423.00;;;15.80;100.00
47985;BME280;33753;52.912;-7.342;2022-07-29T02:52:41;100415.88;;;15.79;100.00
47985;BME280;33753;52.912;-7.342;2022-07-29T02:55:15;100415.00;;;15.78;100.00
47985;BME280;33753;52.912;-7.342;2022-07-29T02:57:46;100422.56;;;15.76;100.00
47985;BME280;33753;52.912;-7.342;2022-07-29T03:00:21;100422.13;;;15.72;100.00
47985;BME280;33753;52.912;-7.342;2022-07-29T03:02:53;100422.34;;;15.71;100.00
47985;BME280;33753;52.912;-7.342;2022-07-29T03:05:22;100425.69;;;15.66;100.00
47985;BME280;33753;52.912;-7.342;2022-07-29T03:07:52;100427.97;;;15.63;100.00
47985;BME280;33753;52.912;-7.342;2022-07-29T03:10:22;100425.44;;;15.61;100.00
47985;BME280;33753;52.912;-7.342;2022-07-29T03:12:51;100425.88;;;15.58;100.00
47985;BME280;33753;52.912;-7.342;2022-07-29T03:15:19;100422.50;;;15.56;100.00
47985;BME280;33753;52.912;-7.342;2022-07-29T03:17:50;100425.44;;;15.54;100.00
47985;BME280;33753;52.912;-7.342;2022-07-29T03:20:21;100419.56;;;15.51;100.00
47985;BME280;33753;52.912;-7.342;2022-07-29T03:22:49;100423.31;;;15.50;100.00
47985;BME280;33753;52.912;-7.342;2022-07-29T03:25:19;100421.84;;;15.47;100.00
47985;BME280;33753;52.912;-7.342;2022-07-29T03:27:47;100422.03;;;15.46;100.00
47985;BME280;33753;52.912;-7.342;2022-07-29T03:30:16;100428.56;;;15.45;100.00
47985;BME280;33753;52.912;-7.342;2022-07-29T03:32:48;100434.84;;;15.45;100.00
47985;BME280;33753;52.912;-7.342;2022-07-29T03:35:18;100438.00;;;15.42;100.00
47985;BME280;33753;52.912;-7.342;2022-07-29T03:37:48;100445.31;;;15.42;100.00
47985;BME280;33753;52.912;-7.342;2022-07-29T03:40:18;100446.38;;;15.41;100.00
47985;BME280;33753;52.912;-7.342;2022-07-29T03:42:47;100452.03;;;15.39;100.00
47985;BME280;33753;52.912;-7.342;2022-07-29T03:45:18;100459.34;;;15.38;100.00
47985;BME280;33753;52.912;-7.342;2022-07-29T03:47:47;100463.31;;;15.36;100.00
47985;BME280;33753;52.912;-7.342;2022-07-29T03:50:22;100456.41;;;15.40;100.00
47985;BME280;33753;52.912;-7.342;2022-07-29T03:52:52;100450.97;;;15.40;100.00
47985;BME280;33753;52.912;-7.342;2022-07-29T03:55:21;100455.59;;;15.40;100.00
47985;BME280;33753;52.912;-7.342;2022-07-29T03:57:49;100451.63;;;15.42;100.00
47985;BME280;33753;52.912;-7.342;2022-07-29T04:00:18;100447.00;;;15.43;100.00
47985;BME280;33753;52.912;-7.342;2022-07-29T04:02:46;100448.88;;;15.42;100.00
47985;BME280;33753;52.912;-7.342;2022-07-29T04:05:16;100439.66;;;15.43;100.00
47985;BME280;33753;52.912;-7.342;2022-07-29T04:07:46;100456.00;;;15.43;100.00
47985;BME280;33753;52.912;-7.342;2022-07-29T04:10:16;100455.81;;;15.45;100.00
47985;BME280;33753;52.912;-7.342;2022-07-29T04:12:57;100457.47;;;15.46;100.00
47985;BME280;33753;52.912;-7.342;2022-07-29T04:15:26;100458.56;;;15.45;100.00
47985;BME280;33753;52.912;-7.342;2022-07-29T04:17:57;100454.13;;;15.44;100.00
47985;BME280;33753;52.912;-7.342;2022-07-29T04:20:25;100461.44;;;15.43;100.00
47985;BME280;33753;52.912;-7.342;2022-07-29T04:22:53;100463.34;;;15.43;100.00
47985;BME280;33753;52.912;-7.342;2022-07-29T04:25:23;100459.59;;;15.44;100.00
47985;BME280;33753;52.912;-7.342;2022-07-29T04:27:51;100461.66;;;15.42;100.00
47985;BME280;33753;52.912;-7.342;2022-07-29T04:30:29;100465.25;;;15.42;100.00
47985;BME280;33753;52.912;-7.342;2022-07-29T04:32:57;100467.97;;;15.42;100.00
47985;BME280;33753;52.912;-7.342;2022-07-29T04:35:27;100466.47;;;15.40;100.00
47985;BME280;33753;52.912;-7.342;2022-07-29T04:38:04;100466.47;;;15.40;100.00
47985;BME280;33753;52.912;-7.342;2022-07-29T04:40:34;100464.78;;;15.38;100.00
47985;BME280;33753;52.912;-7.342;2022-07-29T04:43:04;100464.78;;;15.38;100.00
47985;BME280;33753;52.912;-7.342;2022-07-29T04:45:34;100459.34;;;15.38;100.00
47985;BME280;33753;52.912;-7.342;2022-07-29T04:48:19;100465.84;;;15.37;100.00
47985;BME280;33753;52.912;-7.342;2022-07-29T04:50:54;100461.44;;;15.36;100.00
47985;BME280;33753;52.912;-7.342;2022-07-29T04:53:22;100470.66;;;15.35;100.00
47985;BME280;33753;52.912;-7.342;2022-07-29T04:55:52;100462.28;;;15.37;100.00
47985;BME280;33753;52.912;-7.342;2022-07-29T04:58:20;100461.44;;;15.36;100.00
47985;BME280;33753;52.912;-7.342;2022-07-29T05:00:49;100467.72;;;15.37;100.00
47985;BME280;33753;52.912;-7.342;2022-07-29T05:03:19;100461.25;;;15.38;100.00
47985;BME280;33753;52.912;-7.342;2022-07-29T05:05:47;100449.31;;;15.39;100.00
47985;BME280;33753;52.912;-7.342;2022-07-29T05:08:15;100451.81;;;15.41;100.00
47985;BME280;33753;52.912;-7.342;2022-07-29T05:11:05;100454.13;;;15.44;100.00
47985;BME280;33753;52.912;-7.342;2022-07-29T05:13:38;100456.66;;;15.45;100.00
47985;BME280;33753;52.912;-7.342;2022-07-29T05:16:11;100453.50;;;15.48;100.00
47985;BME280;33753;52.912;-7.342;2022-07-29T05:18:40;100461.50;;;15.50;100.00
47985;BME280;33753;52.912;-7.342;2022-07-29T05:21:08;100467.81;;;15.50;100.00
47985;BME280;33753;52.912;-7.342;2022-07-29T05:23:37;100464.88;;;15.52;100.00
47985;BME280;33753;52.912;-7.342;2022-07-29T05:26:06;100467.59;;;15.52;100.00
47985;BME280;33753;52.912;-7.342;2022-07-29T05:28:34;100468.84;;;15.56;100.00
47985;BME280;33753;52.912;-7.342;2022-07-29T05:31:02;100476.84;;;15.58;100.00
47985;BME280;33753;52.912;-7.342;2022-07-29T05:33:31;100471.19;;;15.59;100.00
47985;BME280;33753;52.912;-7.342;2022-07-29T05:36:02;100478.28;;;15.60;100.00
47985;BME280;33753;52.912;-7.342;2022-07-29T05:38:32;100479.78;;;15.63;100.00
47985;BME280;33753;52.912;-7.342;2022-07-29T05:41:01;100469.53;;;15.65;100.00
47985;BME280;33753;52.912;-7.342;2022-07-29T05:43:30;100474.56;;;15.68;100.00
47985;BME280;33753;52.912;-7.342;2022-07-29T05:45:59;100474.16;;;15.71;100.00
47985;BME280;33753;52.912;-7.342;2022-07-29T05:48:27;100470.81;;;15.76;100.00
47985;BME280;33753;52.912;-7.342;2022-07-29T05:50:55;100477.56;;;15.80;100.00
47985;BME280;33753;52.912;-7.342;2022-07-29T05:53:24;100476.94;;;15.84;100.00
47985;BME280;33753;52.912;-7.342;2022-07-29T05:55:52;100472.53;;;15.90;100.00
47985;BME280;33753;52.912;-7.342;2022-07-29T05:58:20;100478.44;;;15.94;100.00
47985;BME280;33753;52.912;-7.342;2022-07-29T06:00:50;100483.28;;;15.98;100.00
47985;BME280;33753;52.912;-7.342;2022-07-29T06:03:19;100475.91;;;15.99;100.00
47985;BME280;33753;52.912;-7.342;2022-07-29T06:05:47;100481.81;;;16.02;100.00
47985;BME280;33753;52.912;-7.342;2022-07-29T06:08:15;100478.66;;;16.05;100.00
47985;BME280;33753;52.912;-7.342;2022-07-29T06:10:44;100483.06;;;16.13;100.00
47985;BME280;33753;52.912;-7.342;2022-07-29T06:13:13;100479.94;;;16.16;100.00
47985;BME280;33753;52.912;-7.342;2022-07-29T06:15:42;100479.75;;;16.18;100.00
47985;BME280;33753;52.912;-7.342;2022-07-29T06:18:13;100486.47;;;16.22;100.00
47985;BME280;33753;52.912;-7.342;2022-07-29T06:20:41;100476.78;;;16.26;100.00
47985;BME280;33753;52.912;-7.342;2022-07-29T06:23:09;100471.75;;;16.30;100.00
47985;BME280;33753;52.912;-7.342;2022-07-29T06:26:07;100479.09;;;16.36;100.00
47985;BME280;33753;52.912;-7.342;2022-07-29T06:28:35;100482.50;;;16.38;100.00
47985;BME280;33753;52.912;-7.342;2022-07-29T06:31:04;100490.03;;;16.42;100.00
47985;BME280;33753;52.912;-7.342;2022-07-29T06:33:57;100492.34;;;16.52;100.00
47985;BME280;33753;52.912;-7.342;2022-07-29T06:36:26;100491.09;;;16.55;100.00
47985;BME280;33753;52.912;-7.342;2022-07-29T06:38:54;100495.09;;;16.59;100.00
47985;BME280;33753;52.912;-7.342;2022-07-29T06:41:22;100492.56;;;16.64;100.00
47985;BME280;33753;52.912;-7.342;2022-07-29T06:43:51;100499.06;;;16.63;100.00
47985;BME280;33753;52.912;-7.342;2022-07-29T06:46:22;100500.31;;;16.67;100.00
47985;BME280;33753;52.912;-7.342;2022-07-29T06:48:50;100488.97;;;16.70;100.00
47985;BME280;33753;52.912;-7.342;2022-07-29T06:51:21;100492.13;;;16.74;100.00
47985;BME280;33753;52.912;-7.342;2022-07-29T06:53:50;100491.69;;;16.77;100.00
47985;BME280;33753;52.912;-7.342;2022-07-29T06:56:30;100487.28;;;16.83;100.00
47985;BME280;33753;52.912;-7.342;2022-07-29T06:59:06;100491.91;;;16.89;100.00
47985;BME280;33753;52.912;-7.342;2022-07-29T07:01:35;100496.94;;;16.99;100.00
47985;BME280;33753;52.912;-7.342;2022-07-29T07:04:04;100493.56;;;17.17;100.00
47985;BME280;33753;52.912;-7.342;2022-07-29T07:06:34;100490.97;;;17.35;100.00
47985;BME280;33753;52.912;-7.342;2022-07-29T07:09:02;100498.41;;;17.73;100.00
47985;BME280;33753;52.912;-7.342;2022-07-29T07:11:30;100508.94;;;18.40;100.00
47985;BME280;33753;52.912;-7.342;2022-07-29T07:13:59;100501.94;;;19.20;100.00
47985;BME280;33753;52.912;-7.342;2022-07-29T07:16:29;100506.06;;;19.97;100.00
47985;BME280;33753;52.912;-7.342;2022-07-29T07:19:17;100511.66;;;20.75;100.00
47985;BME280;33753;52.912;-7.342;2022-07-29T07:21:47;100488.75;;;21.45;100.00
47985;BME280;33753;52.912;-7.342;2022-07-29T07:24:15;100494.09;;;22.21;100.00
47985;BME280;33753;52.912;-7.342;2022-07-29T07:26:44;100496.91;;;22.89;100.00
47985;BME280;33753;52.912;-7.342;2022-07-29T07:29:12;100486.09;;;23.44;100.00
47985;BME280;33753;52.912;-7.342;2022-07-29T07:31:40;100480.28;;;23.90;100.00
47985;BME280;33753;52.912;-7.342;2022-07-29T07:34:09;100485.06;;;24.59;100.00
47985;BME280;33753;52.912;-7.342;2022-07-29T07:36:38;100477.91;;;24.63;100.00
47985;BME280;33753;52.912;-7.342;2022-07-29T07:39:07;100474.81;;;24.92;100.00
47985;BME280;33753;52.912;-7.342;2022-07-29T07:41:38;100464.34;;;25.05;100.00
47985;BME280;33753;52.912;-7.342;2022-07-29T07:44:07;100464.94;;;25.12;100.00
47985;BME280;33753;52.912;-7.342;2022-07-29T07:46:41;100456.78;;;25.38;100.00
47985;BME280;33753;52.912;-7.342;2022-07-29T07:49:11;100459.31;;;25.44;100.00
47985;BME280;33753;52.912;-7.342;2022-07-29T07:51:39;100459.50;;;25.22;100.00
47985;BME280;33753;52.912;-7.342;2022-07-29T07:54:17;100461.88;;;25.61;100.00
47985;BME280;33753;52.912;-7.342;2022-07-29T07:56:46;100461.28;;;25.54;100.00
47985;BME280;33753;52.912;-7.342;2022-07-29T07:59:21;100447.50;;;25.85;100.00
47985;BME280;33753;52.912;-7.342;2022-07-29T08:01:50;100447.50;;;25.85;100.00
47985;BME280;33753;52.912;-7.342;2022-07-29T08:04:22;100452.47;;;25.78;100.00
47985;BME280;33753;52.912;-7.342;2022-07-29T08:06:54;100458.56;;;25.75;100.00
47985;BME280;33753;52.912;-7.342;2022-07-29T08:09:25;100463.91;;;26.02;100.00
47985;BME280;33753;52.912;-7.342;2022-07-29T08:11:56;100468.09;;;26.20;100.00
47985;BME280;33753;52.912;-7.342;2022-07-29T08:14:24;100454.81;;;26.43;100.00
47985;BME280;33753;52.912;-7.342;2022-07-29T08:16:52;100447.88;;;26.45;100.00
47985;BME280;33753;52.912;-7.342;2022-07-29T08:19:20;100450.91;;;26.80;100.00
47985;BME280;33753;52.912;-7.342;2022-07-29T08:21:49;100448.56;;;27.18;100.00
47985;BME280;33753;52.912;-7.342;2022-07-29T08:24:20;100449.06;;;27.46;100.00
47985;BME280;33753;52.912;-7.342;2022-07-29T08:27:07;100444.50;;;27.65;100.00
47985;BME280;33753;52.912;-7.342;2022-07-29T08:29:56;100441.41;;;28.17;100.00
47985;BME280;33753;52.912;-7.342;2022-07-29T08:32:24;100435.16;;;28.30;100.00
47985;BME280;33753;52.912;-7.342;2022-07-29T08:35:12;100434.97;;;28.51;100.00
47985;BME280;33753;52.912;-7.342;2022-07-29T08:37:40;100427.72;;;28.84;100.00
47985;BME280;33753;52.912;-7.342;2022-07-29T08:40:09;100428.25;;;29.54;100.00
47985;BME280;33753;52.912;-7.342;2022-07-29T08:42:39;100425.44;;;29.97;100.00
47985;BME280;33753;52.912;-7.342;2022-07-29T08:45:07;100417.97;;;30.44;100.00
47985;BME280;33753;52.912;-7.342;2022-07-29T08:47:37;100419.34;;;30.47;100.00
47985;BME280;33753;52.912;-7.342;2022-07-29T08:50:06;100414.28;;;29.97;100.00
47985;BME280;33753;52.912;-7.342;2022-07-29T08:52:35;100418.78;;;29.36;100.00
47985;BME280;33753;52.912;-7.342;2022-07-29T08:55:04;100425.34;;;28.96;100.00
47985;BME280;33753;52.912;-7.342;2022-07-29T08:57:33;100430.00;;;28.48;100.00
47985;BME280;33753;52.912;-7.342;2022-07-29T09:00:05;100437.84;;;28.11;100.00
47985;BME280;33753;52.912;-7.342;2022-07-29T09:02:39;100437.78;;;27.76;100.00
47985;BME280;33753;52.912;-7.342;2022-07-29T09:07:41;100432.19;;;28.21;100.00
47985;BME280;33753;52.912;-7.342;2022-07-29T09:10:10;100437.13;;;27.85;100.00
47985;BME280;33753;52.912;-7.342;2022-07-29T09:12:38;100429.69;;;27.75;100.00
47985;BME280;33753;52.912;-7.342;2022-07-29T09:15:08;100438.31;;;27.73;100.00
47985;BME280;33753;52.912;-7.342;2022-07-29T09:17:40;100440.03;;;28.43;100.00
47985;BME280;33753;52.912;-7.342;2022-07-29T09:20:09;100439.47;;;29.05;100.00
47985;BME280;33753;52.912;-7.342;2022-07-29T09:22:40;100442.53;;;28.79;100.00
47985;BME280;33753;52.912;-7.342;2022-07-29T09:25:33;100431.34;;;29.52;100.00
47985;BME280;33753;52.912;-7.342;2022-07-29T09:28:06;100438.84;;;30.14;100.00
47985;BME280;33753;52.912;-7.342;2022-07-29T09:30:43;100436.81;;;30.20;100.00
47985;BME280;33753;52.912;-7.342;2022-07-29T09:33:20;100433.72;;;30.68;100.00
47985;BME280;33753;52.912;-7.342;2022-07-29T09:36:00;100427.84;;;30.56;100.00
47985;BME280;33753;52.912;-7.342;2022-07-29T09:38:39;100423.94;;;30.84;100.00
47985;BME280;33753;52.912;-7.342;2022-07-29T09:41:07;100412.25;;;30.03;100.00
47985;BME280;33753;52.912;-7.342;2022-07-29T09:43:41;100417.59;;;30.32;100.00
47985;BME280;33753;52.912;-7.342;2022-07-29T09:46:32;100420.44;;;29.56;100.00
47985;BME280;33753;52.912;-7.342;2022-07-29T09:49:07;100420.97;;;28.90;100.00
47985;BME280;33753;52.912;-7.342;2022-07-29T09:51:36;100417.13;;;28.57;100.00
47985;BME280;33753;52.912;-7.342;2022-07-29T09:56:48;100421.84;;;27.87;100.00
47985;BME280;33753;52.912;-7.342;2022-07-29T09:59:16;100411.88;;;27.31;100.00
47985;BME280;33753;52.912;-7.342;2022-07-29T10:01:49;100411.84;;;27.36;100.00
47985;BME280;33753;52.912;-7.342;2022-07-29T10:04:40;100412.06;;;26.80;100.00
47985;BME280;33753;52.912;-7.342;2022-07-29T10:07:16;100406.53;;;26.54;100.00
47985;BME280;33753;52.912;-7.342;2022-07-29T10:09:53;100414.59;;;26.09;100.00
47985;BME280;33753;52.912;-7.342;2022-07-29T10:12:29;100420.09;;;25.99;100.00
47985;BME280;33753;52.912;-7.342;2022-07-29T10:15:07;100413.69;;;25.73;100.00
47985;BME280;33753;52.912;-7.342;2022-07-29T10:17:45;100416.44;;;25.57;100.00
47985;BME280;33753;52.912;-7.342;2022-07-29T10:20:14;100421.66;;;25.53;100.00
47985;BME280;33753;52.912;-7.342;2022-07-29T10:22:48;100429.72;;;25.55;100.00
47985;BME280;33753;52.912;-7.342;2022-07-29T10:25:24;100434.69;;;25.48;100.00
47985;BME280;33753;52.912;-7.342;2022-07-29T10:28:05;100439.00;;;25.28;100.00
47985;BME280;33753;52.912;-7.342;2022-07-29T10:30:47;100441.94;;;25.06;100.00
47985;BME280;33753;52.912;-7.342;2022-07-29T10:33:27;100442.38;;;24.82;100.00
47985;BME280;33753;52.912;-7.342;2022-07-29T10:36:05;100450.53;;;24.62;100.00
47985;BME280;33753;52.912;-7.342;2022-07-29T10:38:52;100459.47;;;24.42;100.00
47985;BME280;33753;52.912;-7.342;2022-07-29T10:41:39;100467.22;;;24.45;100.00
47985;BME280;33753;52.912;-7.342;2022-07-29T10:44:17;100471.38;;;24.10;100.00
47985;BME280;33753;52.912;-7.342;2022-07-29T10:46:53;100463.44;;;23.91;100.00
47985;BME280;33753;52.912;-7.342;2022-07-29T10:49:37;100455.28;;;23.79;100.00
47985;BME280;33753;52.912;-7.342;2022-07-29T10:58:22;100440.03;;;23.27;100.00
47985;BME280;33753;52.912;-7.342;2022-07-29T11:01:00;100443.97;;;23.32;100.00
47985;BME280;33753;52.912;-7.342;2022-07-29T11:04:04;100429.94;;;23.60;100.00
47985;BME280;33753;52.912;-7.342;2022-07-29T11:09:18;100439.38;;;24.19;100.00
47985;BME280;33753;52.912;-7.342;2022-07-29T11:12:01;100433.97;;;24.35;100.00
47985;BME280;33753;52.912;-7.342;2022-07-29T11:17:16;100433.38;;;24.27;100.00
47985;BME280;33753;52.912;-7.342;2022-07-29T11:19:45;100436.66;;;24.24;100.00
47985;BME280;33753;52.912;-7.342;2022-07-29T11:22:31;100444.56;;;24.43;100.00
47985;BME280;33753;52.912;-7.342;2022-07-29T11:28:10;100448.47;;;24.47;100.00
47985;BME280;33753;52.912;-7.342;2022-07-29T11:30:48;100445.09;;;24.72;100.00
47985;BME280;33753;52.912;-7.342;2022-07-29T11:33:27;100448.09;;;24.71;100.00
47985;BME280;33753;52.912;-7.342;2022-07-29T11:36:15;100445.72;;;24.52;100.00
47985;BME280;33753;52.912;-7.342;2022-07-29T11:39:05;100446.50;;;24.42;100.00
47985;BME280;33753;52.912;-7.342;2022-07-29T11:45:19;100450.53;;;24.29;100.00
47985;BME280;33753;52.912;-7.342;2022-07-29T11:48:07;100449.41;;;24.25;100.00
47985;BME280;33753;52.912;-7.342;2022-07-29T11:50:57;100451.47;;;24.08;100.00
47985;BME280;33753;52.912;-7.342;2022-07-29T11:53:26;100453.41;;;23.85;100.00
47985;BME280;33753;52.912;-7.342;2022-07-29T11:55:58;100442.50;;;23.95;100.00
47985;BME280;33753;52.912;-7.342;2022-07-29T11:58:28;100444.16;;;23.96;100.00
47985;BME280;33753;52.912;-7.342;2022-07-29T12:00:58;100449.72;;;24.02;100.00
47985;BME280;33753;52.912;-7.342;2022-07-29T12:03:30;100448.63;;;24.03;100.00
47985;BME280;33753;52.912;-7.342;2022-07-29T12:06:02;100447.56;;;23.81;100.00
47985;BME280;33753;52.912;-7.342;2022-07-29T12:08:51;100443.56;;;23.89;100.00
47985;BME280;33753;52.912;-7.342;2022-07-29T12:11:22;100439.44;;;23.70;100.00
47985;BME280;33753;52.912;-7.342;2022-07-29T12:13:53;100438.59;;;23.69;100.00
47985;BME280;33753;52.912;-7.342;2022-07-29T12:16:23;100443.06;;;23.48;100.00
47985;BME280;33753;52.912;-7.342;2022-07-29T12:19:02;100433.44;;;23.28;100.00
47985;BME280;33753;52.912;-7.342;2022-07-29T12:21:42;100436.28;;;23.34;100.00
47985;BME280;33753;52.912;-7.342;2022-07-29T12:24:19;100431.84;;;23.33;100.00
47985;BME280;33753;52.912;-7.342;2022-07-29T12:26:56;100430.69;;;23.28;100.00
47985;BME280;33753;52.912;-7.342;2022-07-29T12:29:24;100433.50;;;23.34;100.00
47985;BME280;33753;52.912;-7.342;2022-07-29T12:32:05;100426.72;;;23.19;100.00
47985;BME280;33753;52.912;-7.342;2022-07-29T12:34:45;100427.91;;;23.28;100.00
47985;BME280;33753;52.912;-7.342;2022-07-29T12:37:13;100431.06;;;23.37;100.00
47985;BME280;33753;52.912;-7.342;2022-07-29T12:39:41;100429.19;;;23.43;100.00
47985;BME280;33753;52.912;-7.342;2022-07-29T12:42:11;100417.72;;;23.56;100.00
47985;BME280;33753;52.912;-7.342;2022-07-29T12:44:44;100418.69;;;23.67;100.00
47985;BME280;33753;52.912;-7.342;2022-07-29T12:47:17;100409.22;;;23.85;100.00
47985;BME280;33753;52.912;-7.342;2022-07-29T12:49:46;100409.72;;;23.82;100.00
47985;BME280;33753;52.912;-7.342;2022-07-29T12:52:23;100413.84;;;23.79;100.00
47985;BME280;33753;52.912;-7.342;2022-07-29T12:54:52;100416.91;;;23.83;100.00
47985;BME280;33753;52.912;-7.342;2022-07-29T12:57:22;100414.69;;;23.80;100.00
47985;BME280;33753;52.912;-7.342;2022-07-29T13:00:02;100411.50;;;23.88;100.00
47985;BME280;33753;52.912;-7.342;2022-07-29T13:02:32;100413.50;;;23.98;100.00
47985;BME280;33753;52.912;-7.342;2022-07-29T13:05:03;100419.94;;;23.81;100.00
47985;BME280;33753;52.912;-7.342;2022-07-29T13:07:32;100418.59;;;23.84;100.00
47985;BME280;33753;52.912;-7.342;2022-07-29T13:10:22;100413.53;;;24.03;100.00
47985;BME280;33753;52.912;-7.342;2022-07-29T13:13:01;100414.69;;;24.07;100.00
47985;BME280;33753;52.912;-7.342;2022-07-29T13:15:30;100427.75;;;24.17;100.00
47985;BME280;33753;52.912;-7.342;2022-07-29T13:18:00;100414.00;;;24.22;100.00
47985;BME280;33753;52.912;-7.342;2022-07-29T13:20:28;100412.00;;;24.18;100.00
47985;BME280;33753;52.912;-7.342;2022-07-29T13:22:58;100416.84;;;24.32;100.00